Time,TemperatureF,DewpointF,PressureIn,WindDirection,WindDirectionDegrees,WindSpeedMPH,WindSpeedGustMPH,Humidity,HourlyPrecipIn,Conditions,Clouds,dailyrainin,SoftwareType,DateUTC
2013-08-25 00:02:00,53.4,52.0,30.36,ENE,58,0.0,0.0,96,0.00,,,0.00,weatherlink.com 1.10,2013-08-25 04:02:00,
2013-08-25 00:17:00,53.0,52.0,30.36,ENE,58,0.0,0.0,95,0.00,,,0.00,weatherlink.com 1.10,2013-08-25 04:17:00,
2013-08-25 00:32:00,52.5,51.0,30.35,ENE,58,0.0,0.0,95,0.00,,,0.00,weatherlink.com 1.10,2013-08-25 04:32:00,
2013-08-25 00:47:00,52.3,51.0,30.35,ENE,58,0.0,0.0,96,0.00,,,0.00,weatherlink.com 1.10,2013-08-25 04:47:00,
2013-08-25 01:02:00,52.1,51.0,30.34,ENE,58,0.0,0.0,96,0.00,,,0.00,weatherlink.com 1.10,2013-08-25 05:02:00,
2013-08-25 01:17:00,51.7,51.0,30.34,ENE,58,0.0,0.0,96,0.00,,,0.00,weatherlink.com 1.10,2013-08-25 05:17:00,
2013-08-25 01:32:00,51.2,50.0,30.34,ENE,58,0.0,0.0,96,0.00,,,0.00,weatherlink.com 1.10,2013-08-25 05:32:00,
2013-08-25 01:47:00,50.7,50.0,30.34,ENE,58,0.0,0.0,96,0.00,,,0.00,weatherlink.com 1.10,2013-08-25 05:47:00,
2013-08-25 02:02:00,50.5,49.0,30.34,ENE,58,0.0,0.0,96,0.00,,,0.00,weatherlink.com 1.10,2013-08-25 06:02:00,
2013-08-25 02:17:00,50.4,49.0,30.34,ENE,58,0.0,0.0,96,0.00,,,0.00,weatherlink.com 1.10,2013-08-25 06:17:00,
2013-08-25 02:32:00,50.1,49.0,30.34,ENE,58,0.0,0.0,97,0.00,,,0.00,weatherlink.com 1.10,2013-08-25 06:32:00,
2013-08-25 02:47:00,50.4,50.0,30.33,NE,53,0.0,3.0,97,0.00,,,0.00,weatherlink.com 1.10,2013-08-25 06:47:00,
2013-08-25 03:02:00,50.8,50.0,30.34,NE,53,0.0,1.0,97,0.00,,,0.00,weatherlink.com 1.10,2013-08-25 07:02:00,
2013-08-25 03:17:00,50.9,50.0,30.34,NE,53,0.0,0.0,97,0.00,,,0.00,weatherlink.com 1.10,2013-08-25 07:17:00,
2013-08-25 03:32:00,50.9,50.0,30.34,NNE,30,1.0,3.0,97,0.00,,,0.00,weatherlink.com 1.10,2013-08-25 07:32:00,
2013-08-25 03:47:00,51.6,51.0,30.34,NNE,27,1.0,4.0,97,0.00,,,0.00,weatherlink.com 1.10,2013-08-25 07:47:00,
2013-08-25 04:02:00,51.9,51.0,30.35,NNE,27,0.0,0.0,96,0.00,,,0.00,weatherlink.com 1.10,2013-08-25 08:02:00,
2013-08-25 04:17:00,51.5,50.0,30.35,NNE,27,0.0,0.0,95,0.00,,,0.00,weatherlink.com 1.10,2013-08-25 08:17:00,
2013-08-25 04:32:00,51.1,50.0,30.36,NNE,27,0.0,0.0,96,0.00,,,0.00,weatherlink.com 1.10,2013-08-25 08:32:00,
2013-08-25 04:47:00,50.9,50.0,30.36,NNE,27,0.0,0.0,96,0.00,,,0.00,weatherlink.com 1.10,2013-08-25 08:47:00,
2013-08-25 05:02:00,50.5,49.0,30.36,NNE,27,0.0,0.0,96,0.00,,,0.00,weatherlink.com 1.10,2013-08-25 09:02:00,
2013-08-25 05:17:00,49.8,49.0,30.36,NNE,27,0.0,0.0,96,0.00,,,0.00,weatherlink.com 1.10,2013-08-25 09:17:00,
2013-08-25 05:32:00,49.3,48.0,30.36,NNE,27,0.0,0.0,96,0.00,,,0.00,weatherlink.com 1.10,2013-08-25 09:32:00,
2013-08-25 05:47:00,48.8,48.0,30.36,NNE,27,0.0,0.0,96,0.00,,,0.00,weatherlink.com 1.10,2013-08-25 09:47:00,
2013-08-25 06:03:00,48.4,47.0,30.37,NNE,27,0.0,0.0,96,0.00,,,0.00,weatherlink.com 1.10,2013-08-25 10:03:00,
2013-08-25 06:18:00,48.4,48.0,30.37,NNE,27,0.0,0.0,97,0.00,,,0.00,weatherlink.com 1.10,2013-08-25 10:18:00,
2013-08-25 06:33:00,48.8,48.0,30.38,NNE,27,0.0,0.0,97,0.00,,,0.00,weatherlink.com 1.10,2013-08-25 10:33:00,
2013-08-25 06:48:00,49.1,49.0,30.39,NNE,27,0.0,0.0,98,0.00,,,0.00,weatherlink.com 1.10,2013-08-25 10:48:00,
2013-08-25 07:03:00,50.0,50.0,30.39,NNE,26,0.0,1.0,98,0.00,,,0.00,weatherlink.com 1.10,2013-08-25 11:03:00,
2013-08-25 07:18:00,50.5,50.0,30.39,NNE,26,0.0,0.0,98,0.00,,,0.00,weatherlink.com 1.10,2013-08-25 11:18:00,
2013-08-25 07:33:00,50.7,50.0,30.39,NNE,26,0.0,0.0,98,0.00,,,0.00,weatherlink.com 1.10,2013-08-25 11:33:00,
2013-08-25 07:48:00,52.4,52.0,30.38,NNE,26,0.0,1.0,98,0.00,,,0.00,weatherlink.com 1.10,2013-08-25 11:48:00,
2013-08-25 08:03:00,54.9,54.0,30.39,NNE,26,0.0,0.0,98,0.00,,,0.00,weatherlink.com 1.10,2013-08-25 12:03:00,
2013-08-25 08:18:00,56.6,55.0,30.39,NNE,26,0.0,0.0,95,0.00,,,0.00,weatherlink.com 1.10,2013-08-25 12:18:00,
2013-08-25 08:33:00,58.3,56.0,30.39,NNE,26,0.0,0.0,92,0.00,,,0.00,weatherlink.com 1.10,2013-08-25 12:33:00,
2013-08-25 08:48:00,60.3,57.0,30.39,NNE,26,0.0,0.0,89,0.00,,,0.00,weatherlink.com 1.10,2013-08-25 12:48:00,
2013-08-25 09:03:00,62.4,58.0,30.39,SSE,165,1.0,3.0,84,0.00,,,0.00,weatherlink.com 1.10,2013-08-25 13:03:00,
2013-08-25 09:18:00,64.1,57.0,30.39,South,170,1.0,3.0,79,0.00,,,0.00,weatherlink.com 1.10,2013-08-25 13:18:00,
2013-08-25 09:33:00,65.6,58.0,30.38,South,182,2.0,5.0,77,0.00,,,0.00,weatherlink.com 1.10,2013-08-25 13:33:00,
2013-08-25 09:48:00,67.6,58.0,30.38,South,175,0.0,3.0,72,0.00,,,0.00,weatherlink.com 1.10,2013-08-25 13:48:00,
2013-08-25 10:03:00,69.4,58.0,30.38,SSE,167,2.0,3.0,68,0.00,,,0.00,weatherlink.com 1.10,2013-08-25 14:03:00,
2013-08-25 10:18:00,70.6,59.0,30.38,South,179,1.0,4.0,67,0.00,,,0.00,weatherlink.com 1.10,2013-08-25 14:18:00,
2013-08-25 10:33:00,71.5,61.0,30.37,SSW,205,4.0,5.0,70,0.00,,,0.00,weatherlink.com 1.10,2013-08-25 14:33:00,
2013-08-25 10:48:00,72.1,61.0,30.36,South,174,3.0,7.0,67,0.00,,,0.00,weatherlink.com 1.10,2013-08-25 14:48:00,
2013-08-25 11:04:00,73.5,61.0,30.36,SSW,192,0.0,3.0,65,0.00,,,0.00,weatherlink.com 1.10,2013-08-25 15:04:00,
2013-08-25 11:19:00,74.0,61.0,30.35,South,191,3.0,5.0,65,0.00,,,0.00,weatherlink.com 1.10,2013-08-25 15:19:00,
2013-08-25 11:34:00,74.7,63.0,30.35,South,180,0.0,5.0,66,0.00,,,0.00,weatherlink.com 1.10,2013-08-25 15:34:00,
2013-08-25 11:49:00,75.8,63.0,30.34,South,172,2.0,6.0,65,0.00,,,0.00,weatherlink.com 1.10,2013-08-25 15:49:00,
2013-08-25 12:04:00,76.5,61.0,30.33,SW,215,0.0,6.0,60,0.00,,,0.00,weatherlink.com 1.10,2013-08-25 16:04:00,
2013-08-25 12:19:00,77.1,63.0,30.33,SSW,213,2.0,6.0,61,0.00,,,0.00,weatherlink.com 1.10,2013-08-25 16:19:00,
2013-08-25 12:34:00,76.6,62.0,30.32,SSW,192,1.0,4.0,61,0.00,,,0.00,weatherlink.com 1.10,2013-08-25 16:34:00,
2013-08-25 12:49:00,77.9,64.0,30.32,SSW,192,0.0,5.0,62,0.00,,,0.00,weatherlink.com 1.10,2013-08-25 16:49:00,
2013-08-25 13:04:00,79.5,61.0,30.32,SSE,157,0.0,5.0,53,0.00,,,0.00,weatherlink.com 1.10,2013-08-25 17:04:00,
2013-08-25 13:19:00,80.1,58.0,30.32,SSW,195,1.0,6.0,47,0.00,,,0.00,weatherlink.com 1.10,2013-08-25 17:19:00,
2013-08-25 13:34:00,80.3,60.0,30.31,SSW,208,0.0,5.0,51,0.00,,,0.00,weatherlink.com 1.10,2013-08-25 17:34:00,
2013-08-25 13:49:00,80.7,60.0,30.30,SW,234,1.0,7.0,49,0.00,,,0.00,weatherlink.com 1.10,2013-08-25 17:49:00,
2013-08-25 14:04:00,80.5,61.0,30.30,SSW,212,2.0,7.0,52,0.00,,,0.00,weatherlink.com 1.10,2013-08-25 18:04:00,
2013-08-25 14:19:00,81.5,61.0,30.29,South,180,3.0,7.0,50,0.00,,,0.00,weatherlink.com 1.10,2013-08-25 18:19:00,
2013-08-25 14:34:00,82.4,61.0,30.29,South,175,1.0,5.0,49,0.00,,,0.00,weatherlink.com 1.10,2013-08-25 18:34:00,
2013-08-25 14:49:00,83.0,62.0,30.28,South,177,1.0,5.0,49,0.00,,,0.00,weatherlink.com 1.10,2013-08-25 18:49:00,
2013-08-25 15:04:00,83.1,62.0,30.28,South,173,1.0,5.0,49,0.00,,,0.00,weatherlink.com 1.10,2013-08-25 19:04:00,
2013-08-25 15:19:00,83.3,62.0,30.27,South,178,0.0,2.0,49,0.00,,,0.00,weatherlink.com 1.10,2013-08-25 19:19:00,
2013-08-25 15:34:00,82.9,64.0,30.27,NE,55,1.0,4.0,53,0.00,,,0.00,weatherlink.com 1.10,2013-08-25 19:34:00,
2013-08-25 15:49:00,82.9,62.0,30.27,SSW,202,0.0,6.0,50,0.00,,,0.00,weatherlink.com 1.10,2013-08-25 19:49:00,
2013-08-25 16:04:00,82.9,62.0,30.26,South,179,1.0,6.0,50,0.00,,,0.00,weatherlink.com 1.10,2013-08-25 20:04:00,
2013-08-25 16:19:00,83.0,62.0,30.25,ENE,63,0.0,3.0,49,0.00,,,0.00,weatherlink.com 1.10,2013-08-25 20:19:00,
2013-08-25 16:34:00,82.5,61.0,30.25,SSE,158,2.0,5.0,49,0.00,,,0.00,weatherlink.com 1.10,2013-08-25 20:34:00,
2013-08-25 16:49:00,82.4,62.0,30.24,South,186,3.0,6.0,51,0.00,,,0.00,weatherlink.com 1.10,2013-08-25 20:49:00,
2013-08-25 17:04:00,81.4,61.0,30.23,South,189,0.0,5.0,50,0.00,,,0.00,weatherlink.com 1.10,2013-08-25 21:04:00,
2013-08-25 17:19:00,80.1,60.0,30.22,SE,142,2.0,6.0,50,0.00,,,0.00,weatherlink.com 1.10,2013-08-25 21:19:00,
2013-08-25 17:34:00,79.2,61.0,30.22,SSE,166,0.0,3.0,53,0.00,,,0.00,weatherlink.com 1.10,2013-08-25 21:34:00,
2013-08-25 17:49:00,78.8,61.0,30.21,SE,132,0.0,2.0,54,0.00,,,0.00,weatherlink.com 1.10,2013-08-25 21:49:00,
2013-08-25 18:05:00,77.6,60.0,30.20,SSE,147,0.0,1.0,55,0.00,,,0.00,weatherlink.com 1.10,2013-08-25 22:05:00,
2013-08-25 18:20:00,75.9,62.0,30.20,SSE,147,0.0,0.0,62,0.00,,,0.00,weatherlink.com 1.10,2013-08-25 22:20:00,
2013-08-25 18:35:00,74.3,61.0,30.20,SSE,147,0.0,0.0,64,0.00,,,0.00,weatherlink.com 1.10,2013-08-25 22:35:00,
2013-08-25 18:50:00,73.1,63.0,30.20,NNE,30,0.0,1.0,70,0.00,,,0.00,weatherlink.com 1.10,2013-08-25 22:50:00,
2013-08-25 19:05:00,71.5,63.0,30.20,NNE,30,0.0,2.0,75,0.00,,,0.00,weatherlink.com 1.10,2013-08-25 23:05:00,
2013-08-25 19:20:00,70.5,62.0,30.20,NNE,30,0.0,0.0,74,0.00,,,0.00,weatherlink.com 1.10,2013-08-25 23:20:00,
2013-08-25 19:35:00,69.3,62.0,30.20,NNE,30,1.0,1.0,77,0.00,,,0.00,weatherlink.com 1.10,2013-08-25 23:35:00,
2013-08-25 19:50:00,67.9,62.0,30.20,NNE,30,0.0,0.0,80,0.00,,,0.00,weatherlink.com 1.10,2013-08-25 23:50:00,
2013-08-25 20:05:00,67.3,61.0,30.20,NNE,30,0.0,2.0,79,0.00,,,0.00,weatherlink.com 1.10,2013-08-26 00:05:00,
2013-08-25 20:20:00,66.9,61.0,30.20,NNE,30,0.0,0.0,81,0.00,,,0.00,weatherlink.com 1.10,2013-08-26 00:20:00,
2013-08-25 20:35:00,66.4,60.0,30.19,NNE,30,0.0,0.0,80,0.00,,,0.00,weatherlink.com 1.10,2013-08-26 00:35:00,
2013-08-25 20:50:00,66.2,60.0,30.19,NNE,30,0.0,0.0,80,0.00,,,0.00,weatherlink.com 1.10,2013-08-26 00:50:00,
2013-08-25 21:05:00,66.1,60.0,30.18,NNE,30,0.0,0.0,81,0.00,,,0.00,weatherlink.com 1.10,2013-08-26 01:05:00,
2013-08-25 21:20:00,65.9,60.0,30.19,NNE,30,0.0,0.0,80,0.00,,,0.00,weatherlink.com 1.10,2013-08-26 01:20:00,
2013-08-25 21:35:00,65.3,59.0,30.19,NNE,30,0.0,0.0,81,0.00,,,0.00,weatherlink.com 1.10,2013-08-26 01:35:00,
2013-08-25 21:50:00,64.8,60.0,30.19,SE,126,0.0,0.0,83,0.00,,,0.00,weatherlink.com 1.10,2013-08-26 01:50:00,
2013-08-25 22:05:00,64.4,60.0,30.19,East,81,0.0,2.0,86,0.00,,,0.00,weatherlink.com 1.10,2013-08-26 02:05:00,
2013-08-25 22:20:00,64.6,60.0,30.18,ENE,66,0.0,3.0,85,0.00,,,0.00,weatherlink.com 1.10,2013-08-26 02:20:00,
2013-08-25 22:35:00,64.5,60.0,30.18,ENE,65,0.0,0.0,86,0.00,,,0.00,weatherlink.com 1.10,2013-08-26 02:35:00,
2013-08-25 22:50:00,64.0,60.0,30.19,South,175,2.0,2.0,87,0.00,,,0.00,weatherlink.com 1.10,2013-08-26 02:50:00,
2013-08-25 23:05:00,63.5,61.0,30.18,SSE,155,0.0,2.0,90,0.00,,,0.00,weatherlink.com 1.10,2013-08-26 03:05:00,
2013-08-25 23:20:00,63.2,60.0,30.18,SSE,155,0.0,1.0,90,0.00,,,0.00,weatherlink.com 1.10,2013-08-26 03:20:00,
2013-08-25 23:35:00,62.7,60.0,30.18,SSE,155,0.0,1.0,91,0.00,,,0.00,weatherlink.com 1.10,2013-08-26 03:35:00,
2013-08-25 23:50:00,62.5,60.0,30.19,SSE,155,0.0,0.0,92,0.00,,,0.00,weatherlink.com 1.10,2013-08-26 03:50:00,